sensor_id;sensor_type;location;lat;lon;timestamp;pressure;altitude;pressure_sealevel;temperature;humidity
71043;BME280;58696;52.134;5.500;2023-03-23T00:01:14;100358.50;;;10.80;93.92
71043;BME280;58696;52.134;5.500;2023-03-23T00:03:48;100353.38;;;10.80;93.93
71043;BME280;58696;52.134;5.500;2023-03-23T00:06:16;100356.94;;;10.79;93.95
71043;BME280;58696;52.134;5.500;2023-03-23T00:08:46;100350.00;;;10.80;93.66
71043;BME280;58696;52.134;5.500;2023-03-23T00:11:17;100345.06;;;10.78;93.83
71043;BME280;58696;52.134;5.500;2023-03-23T00:13:46;100332.22;;;10.78;93.76
71043;BME280;58696;52.134;5.500;2023-03-23T00:16:14;100320.16;;;10.86;93.50
71043;BME280;58696;52.134;5.500;2023-03-23T00:18:45;100299.22;;;10.89;93.01
71043;BME280;58696;52.134;5.500;2023-03-23T00:21:13;100311.47;;;10.87;92.81
71043;BME280;58696;52.134;5.500;2023-03-23T00:23:40;100321.38;;;10.83;92.89
71043;BME280;58696;52.134;5.500;2023-03-23T00:26:10;100316.81;;;10.78;93.05
71043;BME280;58696;52.134;5.500;2023-03-23T00:28:38;100320.38;;;10.77;93.15
71043;BME280;58696;52.134;5.500;2023-03-23T00:31:09;100326.69;;;10.82;92.94
71043;BME280;58696;52.134;5.500;2023-03-23T00:33:37;100331.06;;;10.94;92.42
71043;BME280;58696;52.134;5.500;2023-03-23T00:36:09;100328.09;;;11.04;91.70
71043;BME280;58696;52.134;5.500;2023-03-23T00:38:38;100316.41;;;11.08;91.20
71043;BME280;58696;52.134;5.500;2023-03-23T00:41:11;100308.69;;;11.08;91.19
71043;BME280;58696;52.134;5.500;2023-03-23T00:43:37;100315.03;;;11.05;91.21
71043;BME280;58696;52.134;5.500;2023-03-23T00:46:04;100309.50;;;11.02;91.02
71043;BME280;58696;52.134;5.500;2023-03-23T00:48:36;100310.91;;;11.04;90.85
71043;BME280;58696;52.134;5.500;2023-03-23T00:51:08;100305.16;;;11.02;90.84
71043;BME280;58696;52.134;5.500;2023-03-23T00:53:40;100303.16;;;10.98;90.99
71043;BME280;58696;52.134;5.500;2023-03-23T00:56:08;100305.16;;;10.96;90.95
71043;BME280;58696;52.134;5.500;2023-03-23T00:58:39;100297.03;;;10.92;91.08
71043;BME280;58696;52.134;5.500;2023-03-23T01:01:05;100290.91;;;10.93;91.19
71043;BME280;58696;52.134;5.500;2023-03-23T01:03:34;100280.03;;;10.98;90.88
71043;BME280;58696;52.134;5.500;2023-03-23T01:06:08;100276.66;;;10.97;90.73
71043;BME280;58696;52.134;5.500;2023-03-23T01:08:42;100268.56;;;10.94;90.72
71043;BME280;58696;52.134;5.500;2023-03-23T01:11:13;100274.09;;;10.97;90.79
71043;BME280;58696;52.134;5.500;2023-03-23T01:13:39;100277.84;;;11.01;90.74
71043;BME280;58696;52.134;5.500;2023-03-23T01:16:07;100274.69;;;10.99;90.43
71043;BME280;58696;52.134;5.500;2023-03-23T01:18:33;100266.97;;;11.06;90.20
71043;BME280;58696;52.134;5.500;2023-03-23T01:21:06;100270.13;;;11.08;89.89
71043;BME280;58696;52.134;5.500;2023-03-23T01:23:38;100273.69;;;11.07;90.00
71043;BME280;58696;52.134;5.500;2023-03-23T01:26:06;100264.41;;;11.06;89.96
71043;BME280;58696;52.134;5.500;2023-03-23T01:28:36;100250.97;;;11.04;89.99
71043;BME280;58696;52.134;5.500;2023-03-23T01:31:04;100238.13;;;11.04;90.29
71043;BME280;58696;52.134;5.500;2023-03-23T01:33:30;100243.84;;;11.06;89.89
71043;BME280;58696;52.134;5.500;2023-03-23T01:36:03;100258.88;;;11.09;89.51
71043;BME280;58696;52.134;5.500;2023-03-23T01:38:34;100239.09;;;11.10;89.24
71043;BME280;58696;52.134;5.500;2023-03-23T01:41:01;100240.88;;;11.09;88.80
71043;BME280;58696;52.134;5.500;2023-03-23T01:43:26;100243.44;;;11.09;88.66
71043;BME280;58696;52.134;5.500;2023-03-23T01:45:55;100242.81;;;11.14;88.39
71043;BME280;58696;52.134;5.500;2023-03-23T01:48:34;100238.47;;;11.14;88.31
71043;BME280;58696;52.134;5.500;2023-03-23T01:51:12;100237.50;;;11.09;88.41
71043;BME280;58696;52.134;5.500;2023-03-23T01:53:43;100239.28;;;11.08;88.36
71043;BME280;58696;52.134;5.500;2023-03-23T01:56:15;100227.63;;;11.05;88.41
71043;BME280;58696;52.134;5.500;2023-03-23T01:58:44;100235.13;;;11.07;88.46
71043;BME280;58696;52.134;5.500;2023-03-23T02:01:13;100233.53;;;11.13;88.46
71043;BME280;58696;52.134;5.500;2023-03-23T02:03:41;100230.38;;;11.11;88.68
71043;BME280;58696;52.134;5.500;2023-03-23T02:06:10;100229.59;;;11.10;88.36
71043;BME280;58696;52.134;5.500;2023-03-23T02:08:36;100224.63;;;11.09;88.39
71043;BME280;58696;52.134;5.500;2023-03-23T02:11:20;100224.84;;;11.07;88.54
71043;BME280;58696;52.134;5.500;2023-03-23T02:13:46;100228.19;;;11.07;88.58
71043;BME280;58696;52.134;5.500;2023-03-23T02:19:04;100224.81;;;11.14;88.36
71043;BME280;58696;52.134;5.500;2023-03-23T02:27:20;100228.59;;;11.18;88.18
71043;BME280;58696;52.134;5.500;2023-03-23T02:35:32;100231.94;;;11.18;88.63
71043;BME280;58696;52.134;5.500;2023-03-23T02:40:41;100224.22;;;11.18;88.60
71043;BME280;58696;52.134;5.500;2023-03-23T02:43:12;100222.06;;;11.15;88.76
71043;BME280;58696;52.134;5.500;2023-03-23T02:45:43;100219.50;;;11.15;88.77
71043;BME280;58696;52.134;5.500;2023-03-23T02:48:14;100214.53;;;11.14;88.99
71043;BME280;58696;52.134;5.500;2023-03-23T02:50:43;100217.13;;;11.20;88.72
71043;BME280;58696;52.134;5.500;2023-03-23T02:53:14;100215.13;;;11.22;88.58
71043;BME280;58696;52.134;5.500;2023-03-23T02:55:48;100218.28;;;11.24;88.57
71043;BME280;58696;52.134;5.500;2023-03-23T02:58:18;100219.06;;;11.25;88.45
71043;BME280;58696;52.134;5.500;2023-03-23T03:00:50;100224.03;;;11.26;88.37
71043;BME280;58696;52.134;5.500;2023-03-23T03:03:20;100220.47;;;11.27;88.34
71043;BME280;58696;52.134;5.500;2023-03-23T03:06:23;100211.75;;;11.28;88.20
71043;BME280;58696;52.134;5.500;2023-03-23T03:08:59;100212.53;;;11.29;88.09
71043;BME280;58696;52.134;5.500;2023-03-23T03:11:34;100200.44;;;11.36;87.36
71043;BME280;58696;52.134;5.500;2023-03-23T03:14:05;100216.88;;;11.42;87.45
71043;BME280;58696;52.134;5.500;2023-03-23T03:16:37;100216.66;;;11.43;87.34
71043;BME280;58696;52.134;5.500;2023-03-23T03:21:39;100213.66;;;11.46;87.00
71043;BME280;58696;52.134;5.500;2023-03-23T03:24:10;100209.13;;;11.48;86.91
71043;BME280;58696;52.134;5.500;2023-03-23T03:26:42;100206.13;;;11.51;86.85
71043;BME280;58696;52.134;5.500;2023-03-23T03:29:11;100203.56;;;11.51;86.48
71043;BME280;58696;52.134;5.500;2023-03-23T03:31:39;100205.94;;;11.53;86.26
71043;BME280;58696;52.134;5.500;2023-03-23T03:34:11;100200.19;;;11.51;86.34
71043;BME280;58696;52.134;5.500;2023-03-23T03:36:46;100200.59;;;11.54;86.16
71043;BME280;58696;52.134;5.500;2023-03-23T03:39:13;100195.22;;;11.56;85.80
71043;BME280;58696;52.134;5.500;2023-03-23T03:41:43;100187.91;;;11.59;85.58
71043;BME280;58696;52.134;5.500;2023-03-23T03:44:12;100198.41;;;11.58;85.38
71043;BME280;58696;52.134;5.500;2023-03-23T03:46:38;100191.66;;;11.57;85.26
71043;BME280;58696;52.134;5.500;2023-03-23T03:49:07;100200.00;;;11.59;85.58
71043;BME280;58696;52.134;5.500;2023-03-23T03:51:34;100186.13;;;11.60;85.42
71043;BME280;58696;52.134;5.500;2023-03-23T03:54:00;100191.06;;;11.62;85.26
71043;BME280;58696;52.134;5.500;2023-03-23T03:56:28;100198.00;;;11.61;85.26
71043;BME280;58696;52.134;5.500;2023-03-23T03:58:53;100200.34;;;11.63;85.21
71043;BME280;58696;52.134;5.500;2023-03-23T04:01:23;100201.75;;;11.65;85.12
71043;BME280;58696;52.134;5.500;2023-03-23T04:03:50;100189.88;;;11.64;84.89
71043;BME280;58696;52.134;5.500;2023-03-23T04:06:19;100189.28;;;11.62;84.86
71043;BME280;58696;52.134;5.500;2023-03-23T04:08:47;100187.31;;;11.64;84.84
71043;BME280;58696;52.134;5.500;2023-03-23T04:11:14;100187.88;;;11.66;84.93
71043;BME280;58696;52.134;5.500;2023-03-23T04:13:42;100189.66;;;11.66;84.83
71043;BME280;58696;52.134;5.500;2023-03-23T04:16:08;100197.38;;;11.66;84.84
71043;BME280;58696;52.134;5.500;2023-03-23T04:18:34;100188.66;;;11.67;84.61
71043;BME280;58696;52.134;5.500;2023-03-23T04:21:01;100179.53;;;11.71;84.32
71043;BME280;58696;52.134;5.500;2023-03-23T04:23:29;100193.97;;;11.72;84.28
71043;BME280;58696;52.134;5.500;2023-03-23T04:25:56;100198.53;;;11.76;84.09
71043;BME280;58696;52.134;5.500;2023-03-23T04:28:26;100201.31;;;11.81;83.66
71043;BME280;58696;52.134;5.500;2023-03-23T04:30:53;100203.25;;;11.79;83.51
71043;BME280;58696;52.134;5.500;2023-03-23T04:33:23;100204.66;;;11.75;83.73
71043;BME280;58696;52.134;5.500;2023-03-23T04:35:51;100199.53;;;11.75;83.23
71043;BME280;58696;52.134;5.500;2023-03-23T04:38:18;100196.53;;;11.78;83.72
71043;BME280;58696;52.134;5.500;2023-03-23T04:40:50;100212.56;;;11.80;82.89
71043;BME280;58696;52.134;5.500;2023-03-23T04:43:22;100215.16;;;11.80;82.69
71043;BME280;58696;52.134;5.500;2023-03-23T04:45:58;100223.06;;;11.79;82.84
71043;BME280;58696;52.134;5.500;2023-03-23T04:48:27;100204.25;;;11.78;82.65
71043;BME280;58696;52.134;5.500;2023-03-23T04:50:53;100230.78;;;11.79;82.48
71043;BME280;58696;52.134;5.500;2023-03-23T04:53:27;100220.47;;;11.79;82.47
71043;BME280;58696;52.134;5.500;2023-03-23T04:55:52;100234.34;;;11.78;82.56
71043;BME280;58696;52.134;5.500;2023-03-23T04:58:18;100239.72;;;11.76;82.30
71043;BME280;58696;52.134;5.500;2023-03-23T05:00:44;100231.38;;;11.81;81.67
71043;BME280;58696;52.134;5.500;2023-03-23T05:03:18;100232.00;;;11.83;81.42
71043;BME280;58696;52.134;5.500;2023-03-23T05:05:47;100241.28;;;11.77;81.59
71043;BME280;58696;52.134;5.500;2023-03-23T05:08:23;100237.13;;;11.76;81.81
71043;BME280;58696;52.134;5.500;2023-03-23T05:11:00;100224.66;;;11.73;81.71
71043;BME280;58696;52.134;5.500;2023-03-23T05:13:31;100230.81;;;11.72;81.89
71043;BME280;58696;52.134;5.500;2023-03-23T05:15:57;100239.31;;;11.73;82.21
71043;BME280;58696;52.134;5.500;2023-03-23T05:18:24;100241.53;;;11.69;82.04
71043;BME280;58696;52.134;5.500;2023-03-23T05:20:52;100246.28;;;11.66;82.28
71043;BME280;58696;52.134;5.500;2023-03-23T05:23:18;100258.56;;;11.64;82.48
71043;BME280;58696;52.134;5.500;2023-03-23T05:25:55;100248.47;;;11.62;82.34
71043;BME280;58696;52.134;5.500;2023-03-23T05:28:21;100241.16;;;11.59;82.93
71043;BME280;58696;52.134;5.500;2023-03-23T05:30:49;100244.56;;;11.53;83.45
71043;BME280;58696;52.134;5.500;2023-03-23T05:33:17;100238.63;;;11.46;83.78
71043;BME280;58696;52.134;5.500;2023-03-23T05:35:43;100243.75;;;11.46;83.70
71043;BME280;58696;52.134;5.500;2023-03-23T05:38:13;100246.16;;;11.47;83.78
71043;BME280;58696;52.134;5.500;2023-03-23T05:40:42;100258.41;;;11.45;83.68
71043;BME280;58696;52.134;5.500;2023-03-23T05:43:08;100265.94;;;11.40;84.04
71043;BME280;58696;52.134;5.500;2023-03-23T05:45:34;100254.88;;;11.40;83.86
71043;BME280;58696;52.134;5.500;2023-03-23T05:48:00;100253.69;;;11.42;83.84
71043;BME280;58696;52.134;5.500;2023-03-23T05:50:28;100255.84;;;11.39;84.52
71043;BME280;58696;52.134;5.500;2023-03-23T05:52:56;100253.47;;;11.30;85.11
71043;BME280;58696;52.134;5.500;2023-03-23T05:55:22;100263.00;;;11.23;85.48
71043;BME280;58696;52.134;5.500;2023-03-23T05:57:47;100272.31;;;11.18;86.49
71043;BME280;58696;52.134;5.500;2023-03-23T06:00:14;100278.47;;;11.10;86.99
71043;BME280;58696;52.134;5.500;2023-03-23T06:02:43;100273.13;;;11.05;87.53
71043;BME280;58696;52.134;5.500;2023-03-23T06:05:10;100289.94;;;11.01;87.75
71043;BME280;58696;52.134;5.500;2023-03-23T06:07:35;100292.09;;;10.97;88.21
71043;BME280;58696;52.134;5.500;2023-03-23T06:10:04;100295.28;;;10.93;88.76
71043;BME280;58696;52.134;5.500;2023-03-23T06:12:29;100302.56;;;10.83;89.55
71043;BME280;58696;52.134;5.500;2023-03-23T06:14:58;100303.16;;;10.71;90.15
71043;BME280;58696;52.134;5.500;2023-03-23T06:17:24;100299.78;;;10.64;90.87
71043;BME280;58696;52.134;5.500;2023-03-23T06:19:51;100297.19;;;10.58;91.00
71043;BME280;58696;52.134;5.500;2023-03-23T06:22:19;100303.13;;;10.51;91.38
71043;BME280;58696;52.134;5.500;2023-03-23T06:24:45;100299.53;;;10.46;91.93
71043;BME280;58696;52.134;5.500;2023-03-23T06:27:11;100310.19;;;10.43;92.44
71043;BME280;58696;52.134;5.500;2023-03-23T06:29:36;100320.88;;;10.40;92.58
71043;BME280;58696;52.134;5.500;2023-03-23T06:32:05;100309.97;;;10.38;93.17
71043;BME280;58696;52.134;5.500;2023-03-23T06:34:33;100317.50;;;10.39;93.38
71043;BME280;58696;52.134;5.500;2023-03-23T06:36:58;100316.91;;;10.37;93.39
71043;BME280;58696;52.134;5.500;2023-03-23T06:39:26;100326.38;;;10.37;93.77
71043;BME280;58696;52.134;5.500;2023-03-23T06:41:56;100333.50;;;10.35;94.03
71043;BME280;58696;52.134;5.500;2023-03-23T06:44:25;100330.16;;;10.34;94.37
71043;BME280;58696;52.134;5.500;2023-03-23T06:46:50;100343.97;;;10.33;94.57
71043;BME280;58696;52.134;5.500;2023-03-23T06:49:16;100338.84;;;10.33;94.77
71043;BME280;58696;52.134;5.500;2023-03-23T06:51:41;100343.97;;;10.33;94.92
71043;BME280;58696;52.134;5.500;2023-03-23T06:54:07;100342.97;;;10.34;95.11
71043;BME280;58696;52.134;5.500;2023-03-23T06:56:37;100344.56;;;10.35;95.27
71043;BME280;58696;52.134;5.500;2023-03-23T06:59:07;100345.94;;;10.38;95.16
71043;BME280;58696;52.134;5.500;2023-03-23T07:01:33;100340.63;;;10.39;94.76
71043;BME280;58696;52.134;5.500;2023-03-23T07:04:01;100345.38;;;10.42;94.67
71043;BME280;58696;52.134;5.500;2023-03-23T07:06:29;100345.19;;;10.44;94.61
71043;BME280;58696;52.134;5.500;2023-03-23T07:08:55;100358.03;;;10.44;94.54
71043;BME280;58696;52.134;5.500;2023-03-23T07:11:25;100350.13;;;10.45;94.30
71043;BME280;58696;52.134;5.500;2023-03-23T07:13:50;100343.00;;;10.47;94.47
71043;BME280;58696;52.134;5.500;2023-03-23T07:16:16;100344.59;;;10.48;94.56
71043;BME280;58696;52.134;5.500;2023-03-23T07:18:45;100356.66;;;10.48;94.81
71043;BME280;58696;52.134;5.500;2023-03-23T07:21:13;100325.03;;;10.47;94.38
71043;BME280;58696;52.134;5.500;2023-03-23T07:23:38;100321.09;;;10.51;94.01
71043;BME280;58696;52.134;5.500;2023-03-23T07:26:06;100338.50;;;10.56;93.79
71043;BME280;58696;52.134;5.500;2023-03-23T07:28:35;100355.50;;;10.57;92.83
71043;BME280;58696;52.134;5.500;2023-03-23T07:31:01;100359.66;;;10.65;92.31
71043;BME280;58696;52.134;5.500;2023-03-23T07:33:29;100363.84;;;10.66;92.32
71043;BME280;58696;52.134;5.500;2023-03-23T07:35:55;100370.34;;;10.68;92.29
71043;BME280;58696;52.134;5.500;2023-03-23T07:38:23;100370.19;;;10.76;91.98
71043;BME280;58696;52.134;5.500;2023-03-23T07:40:55;100372.19;;;10.88;91.56
71043;BME280;58696;52.134;5.500;2023-03-23T07:43:22;100375.34;;;11.03;91.17
71043;BME280;58696;52.134;5.500;2023-03-23T07:45:48;100378.13;;;11.08;90.37
71043;BME280;58696;52.134;5.500;2023-03-23T07:48:14;100377.94;;;11.03;90.34
71043;BME280;58696;52.134;5.500;2023-03-23T07:50:39;100375.56;;;10.95;90.51
71043;BME280;58696;52.134;5.500;2023-03-23T07:53:05;100385.84;;;10.95;90.48
71043;BME280;58696;52.134;5.500;2023-03-23T07:55:33;100378.34;;;10.93;90.79
71043;BME280;58696;52.134;5.500;2023-03-23T07:57:58;100380.13;;;10.99;90.81
71043;BME280;58696;52.134;5.500;2023-03-23T08:00:24;100380.72;;;11.08;90.46
71043;BME280;58696;52.134;5.500;2023-03-23T08:02:54;100383.91;;;11.10;90.47
71043;BME280;58696;52.134;5.500;2023-03-23T08:05:23;100379.34;;;11.05;90.89
71043;BME280;58696;52.134;5.500;2023-03-23T08:07:49;100392.59;;;11.09;90.47
71043;BME280;58696;52.134;5.500;2023-03-23T08:10:15;100386.66;;;11.15;89.79
71043;BME280;58696;52.134;5.500;2023-03-23T08:12:44;100383.69;;;11.12;89.66
71043;BME280;58696;52.134;5.500;2023-03-23T08:15:12;100387.25;;;11.04;89.81
71043;BME280;58696;52.134;5.500;2023-03-23T08:17:38;100403.66;;;11.03;90.25
71043;BME280;58696;52.134;5.500;2023-03-23T08:20:06;100418.09;;;11.04;89.88
71043;BME280;58696;52.134;5.500;2023-03-23T08:22:37;100404.06;;;11.06;89.97
71043;BME280;58696;52.134;5.500;2023-03-23T08:25:05;100412.97;;;11.04;89.42
71043;BME280;58696;52.134;5.500;2023-03-23T08:27:32;100403.25;;;11.06;89.17
71043;BME280;58696;52.134;5.500;2023-03-23T08:29:58;100390.63;;;11.11;89.32
71043;BME280;58696;52.134;5.500;2023-03-23T08:32:26;100388.25;;;11.16;89.45
71043;BME280;58696;52.134;5.500;2023-03-23T08:34:52;100398.34;;;11.18;89.04
71043;BME280;58696;52.134;5.500;2023-03-23T08:37:18;100406.84;;;11.18;88.91
71043;BME280;58696;52.134;5.500;2023-03-23T08:39:51;100406.25;;;11.29;88.91
71043;BME280;58696;52.134;5.500;2023-03-23T08:42:17;100404.88;;;11.40;89.04
71043;BME280;58696;52.134;5.500;2023-03-23T08:44:46;100409.03;;;11.61;88.30
71043;BME280;58696;52.134;5.500;2023-03-23T08:47:14;100413.97;;;11.63;88.08
71043;BME280;58696;52.134;5.500;2023-03-23T08:49:39;100417.16;;;11.71;87.55
71043;BME280;58696;52.134;5.500;2023-03-23T08:52:07;100422.88;;;11.73;87.87
71043;BME280;58696;52.134;5.500;2023-03-23T08:54:35;100418.53;;;11.67;88.10
71043;BME280;58696;52.134;5.500;2023-03-23T08:57:03;100417.53;;;11.62;88.35
71043;BME280;58696;52.134;5.500;2023-03-23T08:59:29;100414.97;;;11.55;88.06
71043;BME280;58696;52.134;5.500;2023-03-23T09:01:57;100423.47;;;11.62;88.39
71043;BME280;58696;52.134;5.500;2023-03-23T09:04:23;100435.31;;;12.29;87.90
71043;BME280;58696;52.134;5.500;2023-03-23T09:06:55;100439.53;;;12.69;85.28
71043;BME280;58696;52.134;5.500;2023-03-23T09:09:24;100437.34;;;12.72;85.45
71043;BME280;58696;52.134;5.500;2023-03-23T09:11:55;100442.94;;;12.62;85.30
71043;BME280;58696;52.134;5.500;2023-03-23T09:14:23;100445.16;;;12.46;85.31
71043;BME280;58696;52.134;5.500;2023-03-23T09:16:48;100443.22;;;12.34;85.50
71043;BME280;58696;52.134;5.500;2023-03-23T09:19:16;100435.59;;;12.98;82.89
71043;BME280;58696;52.134;5.500;2023-03-23T09:21:46;100429.72;;;13.54;79.83
71043;BME280;58696;52.134;5.500;2023-03-23T09:24:14;100432.38;;;13.40;79.97
71043;BME280;58696;52.134;5.500;2023-03-23T09:26:40;100439.59;;;13.82;79.88
71043;BME280;58696;52.134;5.500;2023-03-23T09:29:08;100445.47;;;13.71;77.96
71043;BME280;58696;52.134;5.500;2023-03-23T09:31:38;100436.69;;;13.47;79.43
71043;BME280;58696;52.134;5.500;2023-03-23T09:34:05;100430.75;;;13.46;78.65
71043;BME280;58696;52.134;5.500;2023-03-23T09:36:32;100438.81;;;13.56;77.98
71043;BME280;58696;52.134;5.500;2023-03-23T09:39:00;100444.00;;;13.25;77.53
71043;BME280;58696;52.134;5.500;2023-03-23T09:42:05;100459.84;;;12.90;79.76
71043;BME280;58696;52.134;5.500;2023-03-23T09:48:00;100450.72;;;13.57;79.17
71043;BME280;58696;52.134;5.500;2023-03-23T09:50:31;100453.00;;;13.72;76.23
71043;BME280;58696;52.134;5.500;2023-03-23T09:53:01;100448.97;;;13.51;76.83
71043;BME280;58696;52.134;5.500;2023-03-23T09:55:28;100456.66;;;13.33;77.37
71043;BME280;58696;52.134;5.500;2023-03-23T09:58:17;100449.03;;;13.45;76.50
71043;BME280;58696;52.134;5.500;2023-03-23T10:03:34;100471.28;;;13.71;75.13
71043;BME280;58696;52.134;5.500;2023-03-23T10:06:02;100471.03;;;13.47;76.90
71043;BME280;58696;52.134;5.500;2023-03-23T10:08:33;100476.34;;;13.27;75.71
71043;BME280;58696;52.134;5.500;2023-03-23T10:14:12;100481.91;;;13.56;76.71
71043;BME280;58696;52.134;5.500;2023-03-23T10:16:57;100479.06;;;13.89;74.83
71043;BME280;58696;52.134;5.500;2023-03-23T10:19:35;100483.22;;;13.90;72.36
71043;BME280;58696;52.134;5.500;2023-03-23T10:22:10;100485.75;;;13.47;72.89
71043;BME280;58696;52.134;5.500;2023-03-23T10:24:43;100484.44;;;13.37;74.24
71043;BME280;58696;52.134;5.500;2023-03-23T10:30:03;100488.69;;;13.82;74.03
71043;BME280;58696;52.134;5.500;2023-03-23T10:32:53;100492.88;;;14.01;73.08
71043;BME280;58696;52.134;5.500;2023-03-23T10:35:32;100489.28;;;14.02;72.84
71043;BME280;58696;52.134;5.500;2023-03-23T10:38:06;100493.69;;;13.77;72.92
71043;BME280;58696;52.134;5.500;2023-03-23T10:40:45;100490.44;;;13.56;72.88
71043;BME280;58696;52.134;5.500;2023-03-23T10:43:13;100488.09;;;13.55;72.53
71043;BME280;58696;52.134;5.500;2023-03-23T10:45:47;100489.56;;;13.44;73.10
71043;BME280;58696;52.134;5.500;2023-03-23T10:48:35;100493.03;;;13.18;73.02
71043;BME280;58696;52.134;5.500;2023-03-23T10:51:05;100491.91;;;13.07;72.80
71043;BME280;58696;52.134;5.500;2023-03-23T10:53:44;100494.31;;;13.02;73.93
71043;BME280;58696;52.134;5.500;2023-03-23T10:56:29;100494.88;;;13.11;72.39
71043;BME280;58696;52.134;5.500;2023-03-23T10:59:19;100488.00;;;13.36;71.36
71043;BME280;58696;52.134;5.500;2023-03-23T11:01:55;100486.28;;;14.05;72.27
71043;BME280;58696;52.134;5.500;2023-03-23T11:04:22;100495.88;;;14.41;69.55
71043;BME280;58696;52.134;5.500;2023-03-23T11:06:52;100495.69;;;14.18;67.82
71043;BME280;58696;52.134;5.500;2023-03-23T11:09:34;100501.38;;;14.08;69.02
71043;BME280;58696;52.134;5.500;2023-03-23T11:12:01;100506.84;;;13.93;68.50
71043;BME280;58696;52.134;5.500;2023-03-23T11:14:29;100511.16;;;13.75;69.83
71043;BME280;58696;52.134;5.500;2023-03-23T11:16:58;100520.97;;;13.91;67.84
71043;BME280;58696;52.134;5.500;2023-03-23T11:19:28;100515.13;;;13.77;67.83
71043;BME280;58696;52.134;5.500;2023-03-23T11:22:32;100509.63;;;13.67;69.11
71043;BME280;58696;52.134;5.500;2023-03-23T11:25:04;100506.47;;;13.90;68.65
71043;BME280;58696;52.134;5.500;2023-03-23T11:27:30;100498.88;;;13.95;68.23
71043;BME280;58696;52.134;5.500;2023-03-23T11:32:34;100497.63;;;14.23;67.46
71043;BME280;58696;52.134;5.500;2023-03-23T11:35:03;100506.38;;;14.65;67.02
71043;BME280;58696;52.134;5.500;2023-03-23T11:37:47;100495.53;;;14.75;66.76
71043;BME280;58696;52.134;5.500;2023-03-23T11:40:18;100512.75;;;14.81;65.56
71043;BME280;58696;52.134;5.500;2023-03-23T11:45:24;100511.31;;;14.85;64.38
71043;BME280;58696;52.134;5.500;2023-03-23T11:51:17;100499.81;;;14.81;65.44
71043;BME280;58696;52.134;5.500;2023-03-23T11:54:11;100493.03;;;14.68;64.05
71043;BME280;58696;52.134;5.500;2023-03-23T11:56:43;100498.16;;;14.31;64.28
71043;BME280;58696;52.134;5.500;2023-03-23T11:59:14;100502.88;;;14.16;64.78
71043;BME280;58696;52.134;5.500;2023-03-23T12:01:51;100505.28;;;13.92;66.41
71043;BME280;58696;52.134;5.500;2023-03-23T12:04:42;100521.66;;;13.55;69.05
71043;BME280;58696;52.134;5.500;2023-03-23T12:07:27;100525.69;;;12.93;74.01
71043;BME280;58696;52.134;5.500;2023-03-23T12:13:14;100531.66;;;12.15;78.86
71043;BME280;58696;52.134;5.500;2023-03-23T12:26:55;100504.56;;;13.79;77.90
71043;BME280;58696;52.134;5.500;2023-03-23T12:32:23;100503.09;;;13.64;77.25
71043;BME280;58696;52.134;5.500;2023-03-23T12:37:54;100499.56;;;13.59;76.24
71043;BME280;58696;52.134;5.500;2023-03-23T12:43:38;100488.75;;;13.68;75.38
71043;BME280;58696;52.134;5.500;2023-03-23T12:48:57;100485.03;;;13.89;75.46
71043;BME280;58696;52.134;5.500;2023-03-23T12:51:59;100474.22;;;14.17;74.20
71043;BME280;58696;52.134;5.500;2023-03-23T12:58:12;100472.25;;;15.46;68.48
71043;BME280;58696;52.134;5.500;2023-03-23T13:08:41;100463.41;;;15.77;66.69
71043;BME280;58696;52.134;5.500;2023-03-23T13:11:19;100467.69;;;15.30;64.56
71043;BME280;58696;52.134;5.500;2023-03-23T13:14:01;100463.22;;;14.95;67.06
71043;BME280;58696;52.134;5.500;2023-03-23T13:25:19;100483.31;;;15.12;66.96
71043;BME280;58696;52.134;5.500;2023-03-23T13:27:58;100481.84;;;15.16;65.61
71043;BME280;58696;52.134;5.500;2023-03-23T13:30:30;100484.28;;;15.11;66.22
71043;BME280;58696;52.134;5.500;2023-03-23T13:33:05;100490.25;;;14.81;66.47
71043;BME280;58696;52.134;5.500;2023-03-23T13:35:35;100494.38;;;14.70;66.14
71043;BME280;58696;52.134;5.500;2023-03-23T13:38:12;100482.16;;;15.08;67.70
71043;BME280;58696;52.134;5.500;2023-03-23T13:40:43;100479.88;;;14.99;65.82
71043;BME280;58696;52.134;5.500;2023-03-23T13:43:09;100493.06;;;14.80;66.31
71043;BME280;58696;52.134;5.500;2023-03-23T13:45:47;100490.22;;;14.69;67.10
71043;BME280;58696;52.134;5.500;2023-03-23T13:50:56;100495.88;;;14.41;68.17
71043;BME280;58696;52.134;5.500;2023-03-23T13:53:45;100498.72;;;14.33;69.12
71043;BME280;58696;52.134;5.500;2023-03-23T13:56:21;100502.16;;;14.27;69.06
71043;BME280;58696;52.134;5.500;2023-03-23T13:59:14;100511.78;;;14.20;68.76
71043;BME280;58696;52.134;5.500;2023-03-23T14:01:40;100487.16;;;14.17;69.01
71043;BME280;58696;52.134;5.500;2023-03-23T14:04:17;100481.63;;;14.14;68.73
71043;BME280;58696;52.134;5.500;2023-03-23T14:06:46;100478.66;;;14.10;69.05
71043;BME280;58696;52.134;5.500;2023-03-23T14:09:32;100475.38;;;14.03;69.79
71043;BME280;58696;52.134;5.500;2023-03-23T14:12:04;100479.84;;;13.89;69.75
71043;BME280;58696;52.134;5.500;2023-03-23T14:15:00;100493.75;;;13.70;71.49
71043;BME280;58696;52.134;5.500;2023-03-23T14:17:41;100492.47;;;13.54;72.91
71043;BME280;58696;52.134;5.500;2023-03-23T14:20:25;100483.78;;;13.42;73.80
71043;BME280;58696;52.134;5.500;2023-03-23T14:22:55;100502.53;;;13.31;74.78
71043;BME280;58696;52.134;5.500;2023-03-23T14:25:22;100504.41;;;13.04;76.04
71043;BME280;58696;52.134;5.500;2023-03-23T14:27:53;100511.47;;;12.83;78.41
71043;BME280;58696;52.134;5.500;2023-03-23T14:30:24;100510.03;;;12.87;80.98
71043;BME280;58696;52.134;5.500;2023-03-23T14:33:02;100513.59;;;13.00;80.27
71043;BME280;58696;52.134;5.500;2023-03-23T14:35:34;100507.59;;;13.06;81.46
71043;BME280;58696;52.134;5.500;2023-03-23T14:38:00;100489.06;;;13.15;81.44